sensor_id;sensor_type;location;lat;lon;timestamp;P1;durP1;ratioP1;P2;durP2;ratioP2
8219;SDS011;4151;51.110;7.020;2022-08-05T00:00:02;4.70;;;2.93;;
8219;SDS011;4151;51.110;7.020;2022-08-05T00:02:29;5.87;;;2.70;;
8219;SDS011;4151;51.110;7.020;2022-08-05T00:04:54;6.73;;;3.40;;
8219;SDS011;4151;51.110;7.020;2022-08-05T00:07:20;5.93;;;2.80;;
8219;SDS011;4151;51.110;7.020;2022-08-05T00:09:45;6.63;;;3.00;;
8219;SDS011;4151;51.110;7.020;2022-08-05T00:12:11;10.13;;;3.10;;
8219;SDS011;4151;51.110;7.020;2022-08-05T00:14:36;7.17;;;2.77;;
8219;SDS011;4151;51.110;7.020;2022-08-05T00:17:02;6.00;;;2.80;;
8219;SDS011;4151;51.110;7.020;2022-08-05T00:19:27;7.63;;;3.20;;
8219;SDS011;4151;51.110;7.020;2022-08-05T00:21:53;6.93;;;2.90;;
8219;SDS011;4151;51.110;7.020;2022-08-05T00:24:19;6.23;;;2.87;;
8219;SDS011;4151;51.110;7.020;2022-08-05T00:26:44;8.03;;;2.60;;
8219;SDS011;4151;51.110;7.020;2022-08-05T00:29:10;8.87;;;2.70;;
8219;SDS011;4151;51.110;7.020;2022-08-05T00:31:36;4.00;;;2.73;;
8219;SDS011;4151;51.110;7.020;2022-08-05T00:34:01;7.10;;;3.40;;
8219;SDS011;4151;51.110;7.020;2022-08-05T00:36:28;5.83;;;2.73;;
8219;SDS011;4151;51.110;7.020;2022-08-05T00:38:53;8.07;;;2.70;;
8219;SDS011;4151;51.110;7.020;2022-08-05T00:41:52;11.53;;;3.20;;
8219;SDS011;4151;51.110;7.020;2022-08-05T00:44:11;17.13;;;5.13;;
8219;SDS011;4151;51.110;7.020;2022-08-05T00:46:37;7.03;;;2.60;;
8219;SDS011;4151;51.110;7.020;2022-08-05T00:49:03;4.97;;;2.53;;
8219;SDS011;4151;51.110;7.020;2022-08-05T00:51:28;8.17;;;3.20;;
8219;SDS011;4151;51.110;7.020;2022-08-05T00:53:54;6.87;;;2.60;;
8219;SDS011;4151;51.110;7.020;2022-08-05T00:56:20;6.43;;;2.80;;
8219;SDS011;4151;51.110;7.020;2022-08-05T00:58:45;4.73;;;2.57;;
8219;SDS011;4151;51.110;7.020;2022-08-05T01:01:11;10.17;;;3.20;;
8219;SDS011;4151;51.110;7.020;2022-08-05T01:03:39;9.63;;;3.13;;
8219;SDS011;4151;51.110;7.020;2022-08-05T01:06:05;6.10;;;3.30;;
8219;SDS011;4151;51.110;7.020;2022-08-05T01:08:32;12.17;;;3.97;;
8219;SDS011;4151;51.110;7.020;2022-08-05T01:11:00;8.17;;;3.00;;
8219;SDS011;4151;51.110;7.020;2022-08-05T01:15:59;6.13;;;2.73;;
8219;SDS011;4151;51.110;7.020;2022-08-05T01:18:30;7.63;;;3.67;;
8219;SDS011;4151;51.110;7.020;2022-08-05T01:29:55;7.90;;;2.70;;
8219;SDS011;4151;51.110;7.020;2022-08-05T01:32:26;4.13;;;2.90;;
8219;SDS011;4151;51.110;7.020;2022-08-05T01:34:59;8.03;;;3.43;;
8219;SDS011;4151;51.110;7.020;2022-08-05T01:37:49;8.57;;;3.23;;
8219;SDS011;4151;51.110;7.020;2022-08-05T01:40:17;5.00;;;3.30;;
8219;SDS011;4151;51.110;7.020;2022-08-05T01:42:47;4.50;;;2.60;;
8219;SDS011;4151;51.110;7.020;2022-08-05T01:45:15;6.73;;;3.70;;
8219;SDS011;4151;51.110;7.020;2022-08-05T01:47:44;5.23;;;4.10;;
8219;SDS011;4151;51.110;7.020;2022-08-05T01:50:16;7.20;;;4.00;;
8219;SDS011;4151;51.110;7.020;2022-08-05T01:52:46;4.57;;;3.23;;
8219;SDS011;4151;51.110;7.020;2022-08-05T01:55:13;6.53;;;3.90;;
8219;SDS011;4151;51.110;7.020;2022-08-05T01:57:42;8.97;;;3.50;;
8219;SDS011;4151;51.110;7.020;2022-08-05T02:00:11;6.47;;;3.50;;
8219;SDS011;4151;51.110;7.020;2022-08-05T02:02:38;8.90;;;3.80;;
8219;SDS011;4151;51.110;7.020;2022-08-05T02:05:08;7.23;;;3.60;;
8219;SDS011;4151;51.110;7.020;2022-08-05T02:07:37;6.53;;;4.33;;
8219;SDS011;4151;51.110;7.020;2022-08-05T02:10:04;8.13;;;3.80;;
8219;SDS011;4151;51.110;7.020;2022-08-05T02:12:33;9.07;;;4.33;;
8219;SDS011;4151;51.110;7.020;2022-08-05T02:15:40;6.70;;;4.47;;
8219;SDS011;4151;51.110;7.020;2022-08-05T02:18:04;13.93;;;4.20;;
8219;SDS011;4151;51.110;7.020;2022-08-05T02:21:08;7.07;;;3.93;;
8219;SDS011;4151;51.110;7.020;2022-08-05T02:23:32;7.43;;;3.63;;
8219;SDS011;4151;51.110;7.020;2022-08-05T02:26:03;6.53;;;3.90;;
8219;SDS011;4151;51.110;7.020;2022-08-05T02:28:32;7.23;;;3.80;;
8219;SDS011;4151;51.110;7.020;2022-08-05T02:31:04;9.93;;;4.40;;
8219;SDS011;4151;51.110;7.020;2022-08-05T02:33:56;10.50;;;4.00;;
8219;SDS011;4151;51.110;7.020;2022-08-05T02:36:21;6.63;;;4.00;;
8219;SDS011;4151;51.110;7.020;2022-08-05T02:38:48;5.30;;;3.70;;
8219;SDS011;4151;51.110;7.020;2022-08-05T02:41:15;6.10;;;4.03;;
8219;SDS011;4151;51.110;7.020;2022-08-05T02:43:44;9.80;;;4.17;;
8219;SDS011;4151;51.110;7.020;2022-08-05T02:46:13;12.13;;;5.13;;
8219;SDS011;4151;51.110;7.020;2022-08-05T02:48:40;7.60;;;4.90;;
8219;SDS011;4151;51.110;7.020;2022-08-05T02:51:06;9.93;;;5.30;;
8219;SDS011;4151;51.110;7.020;2022-08-05T02:53:33;11.43;;;5.90;;
8219;SDS011;4151;51.110;7.020;2022-08-05T02:56:02;10.57;;;5.27;;
8219;SDS011;4151;51.110;7.020;2022-08-05T02:58:28;19.67;;;8.60;;
8219;SDS011;4151;51.110;7.020;2022-08-05T03:00:55;23.07;;;9.17;;
8219;SDS011;4151;51.110;7.020;2022-08-05T03:03:22;32.70;;;11.37;;
8219;SDS011;4151;51.110;7.020;2022-08-05T03:05:49;28.40;;;12.60;;
8219;SDS011;4151;51.110;7.020;2022-08-05T03:08:16;19.97;;;12.23;;
8219;SDS011;4151;51.110;7.020;2022-08-05T03:10:43;30.80;;;13.03;;
8219;SDS011;4151;51.110;7.020;2022-08-05T03:13:15;22.60;;;13.50;;
8219;SDS011;4151;51.110;7.020;2022-08-05T03:15:43;27.87;;;14.73;;
8219;SDS011;4151;51.110;7.020;2022-08-05T03:18:10;30.37;;;12.80;;
8219;SDS011;4151;51.110;7.020;2022-08-05T03:20:36;21.70;;;13.37;;
8219;SDS011;4151;51.110;7.020;2022-08-05T03:23:03;21.70;;;13.63;;
8219;SDS011;4151;51.110;7.020;2022-08-05T03:25:31;17.57;;;12.80;;
8219;SDS011;4151;51.110;7.020;2022-08-05T03:27:58;18.17;;;13.20;;
8219;SDS011;4151;51.110;7.020;2022-08-05T03:30:24;20.20;;;13.47;;
8219;SDS011;4151;51.110;7.020;2022-08-05T03:32:51;17.97;;;12.90;;
8219;SDS011;4151;51.110;7.020;2022-08-05T03:35:17;20.70;;;12.70;;
8219;SDS011;4151;51.110;7.020;2022-08-05T03:37:44;21.07;;;14.07;;
8219;SDS011;4151;51.110;7.020;2022-08-05T03:40:10;28.73;;;16.50;;
8219;SDS011;4151;51.110;7.020;2022-08-05T03:42:37;22.53;;;15.10;;
8219;SDS011;4151;51.110;7.020;2022-08-05T03:45:04;24.93;;;14.60;;
8219;SDS011;4151;51.110;7.020;2022-08-05T03:47:31;23.30;;;15.60;;
8219;SDS011;4151;51.110;7.020;2022-08-05T03:49:56;25.17;;;15.73;;
8219;SDS011;4151;51.110;7.020;2022-08-05T03:52:24;29.27;;;15.30;;
8219;SDS011;4151;51.110;7.020;2022-08-05T03:55:00;40.23;;;16.63;;
8219;SDS011;4151;51.110;7.020;2022-08-05T03:57:31;25.73;;;16.27;;
8219;SDS011;4151;51.110;7.020;2022-08-05T04:00:05;30.53;;;17.77;;
8219;SDS011;4151;51.110;7.020;2022-08-05T04:02:33;34.57;;;17.40;;
8219;SDS011;4151;51.110;7.020;2022-08-05T04:05:01;28.37;;;18.67;;
8219;SDS011;4151;51.110;7.020;2022-08-05T04:07:28;32.13;;;17.87;;
8219;SDS011;4151;51.110;7.020;2022-08-05T04:09:54;31.10;;;18.00;;
8219;SDS011;4151;51.110;7.020;2022-08-05T04:12:21;35.13;;;18.70;;
8219;SDS011;4151;51.110;7.020;2022-08-05T04:14:47;31.70;;;18.67;;
8219;SDS011;4151;51.110;7.020;2022-08-05T04:17:13;38.57;;;20.03;;
8219;SDS011;4151;51.110;7.020;2022-08-05T04:19:46;36.67;;;20.47;;
8219;SDS011;4151;51.110;7.020;2022-08-05T04:22:12;35.40;;;17.67;;
8219;SDS011;4151;51.110;7.020;2022-08-05T04:24:47;45.90;;;20.20;;
8219;SDS011;4151;51.110;7.020;2022-08-05T04:27:13;30.17;;;19.33;;
8219;SDS011;4151;51.110;7.020;2022-08-05T04:29:39;33.00;;;18.73;;
8219;SDS011;4151;51.110;7.020;2022-08-05T04:32:06;42.03;;;19.83;;
8219;SDS011;4151;51.110;7.020;2022-08-05T04:34:32;38.23;;;20.93;;
8219;SDS011;4151;51.110;7.020;2022-08-05T04:36:58;35.80;;;20.37;;
8219;SDS011;4151;51.110;7.020;2022-08-05T04:39:23;41.87;;;21.87;;
8219;SDS011;4151;51.110;7.020;2022-08-05T04:41:49;39.60;;;21.40;;
8219;SDS011;4151;51.110;7.020;2022-08-05T04:44:15;41.20;;;22.20;;
8219;SDS011;4151;51.110;7.020;2022-08-05T04:46:40;34.57;;;20.03;;
8219;SDS011;4151;51.110;7.020;2022-08-05T04:49:06;42.40;;;20.87;;
8219;SDS011;4151;51.110;7.020;2022-08-05T04:51:32;37.67;;;21.40;;
8219;SDS011;4151;51.110;7.020;2022-08-05T04:53:58;45.00;;;21.80;;
8219;SDS011;4151;51.110;7.020;2022-08-05T04:56:25;40.00;;;22.40;;
8219;SDS011;4151;51.110;7.020;2022-08-05T04:58:51;47.83;;;21.67;;
8219;SDS011;4151;51.110;7.020;2022-08-05T05:01:16;46.07;;;22.00;;
8219;SDS011;4151;51.110;7.020;2022-08-05T05:03:42;45.83;;;22.27;;
8219;SDS011;4151;51.110;7.020;2022-08-05T05:06:11;47.87;;;23.97;;
8219;SDS011;4151;51.110;7.020;2022-08-05T05:08:37;45.30;;;23.77;;
8219;SDS011;4151;51.110;7.020;2022-08-05T05:11:03;46.00;;;25.43;;
8219;SDS011;4151;51.110;7.020;2022-08-05T05:13:30;49.87;;;26.10;;
8219;SDS011;4151;51.110;7.020;2022-08-05T05:15:56;45.13;;;26.17;;
8219;SDS011;4151;51.110;7.020;2022-08-05T05:18:21;50.00;;;25.43;;
8219;SDS011;4151;51.110;7.020;2022-08-05T05:20:47;60.00;;;29.63;;
8219;SDS011;4151;51.110;7.020;2022-08-05T05:23:13;56.83;;;29.17;;
8219;SDS011;4151;51.110;7.020;2022-08-05T05:25:42;55.03;;;30.37;;
8219;SDS011;4151;51.110;7.020;2022-08-05T05:28:09;54.40;;;28.63;;
8219;SDS011;4151;51.110;7.020;2022-08-05T05:30:36;44.97;;;25.93;;
8219;SDS011;4151;51.110;7.020;2022-08-05T05:33:03;51.87;;;28.17;;
8219;SDS011;4151;51.110;7.020;2022-08-05T05:35:31;49.83;;;28.07;;
8219;SDS011;4151;51.110;7.020;2022-08-05T05:37:58;48.77;;;27.10;;
8219;SDS011;4151;51.110;7.020;2022-08-05T05:40:27;46.50;;;25.77;;
8219;SDS011;4151;51.110;7.020;2022-08-05T05:42:53;50.50;;;26.77;;
8219;SDS011;4151;51.110;7.020;2022-08-05T05:45:20;43.80;;;26.03;;
8219;SDS011;4151;51.110;7.020;2022-08-05T05:47:46;56.20;;;26.97;;
8219;SDS011;4151;51.110;7.020;2022-08-05T05:50:13;53.13;;;28.10;;
8219;SDS011;4151;51.110;7.020;2022-08-05T05:52:41;52.23;;;28.67;;
8219;SDS011;4151;51.110;7.020;2022-08-05T05:55:08;57.90;;;30.40;;
8219;SDS011;4151;51.110;7.020;2022-08-05T05:57:36;45.87;;;27.13;;
8219;SDS011;4151;51.110;7.020;2022-08-05T06:00:06;49.57;;;29.20;;
8219;SDS011;4151;51.110;7.020;2022-08-05T06:02:33;50.90;;;31.37;;
8219;SDS011;4151;51.110;7.020;2022-08-05T06:04:59;45.40;;;27.63;;
8219;SDS011;4151;51.110;7.020;2022-08-05T06:07:25;42.27;;;27.70;;
8219;SDS011;4151;51.110;7.020;2022-08-05T06:09:51;42.27;;;24.23;;
8219;SDS011;4151;51.110;7.020;2022-08-05T06:12:17;38.90;;;23.57;;
8219;SDS011;4151;51.110;7.020;2022-08-05T06:14:42;32.77;;;23.60;;
8219;SDS011;4151;51.110;7.020;2022-08-05T06:17:08;44.50;;;25.40;;
8219;SDS011;4151;51.110;7.020;2022-08-05T06:19:34;37.60;;;24.80;;
8219;SDS011;4151;51.110;7.020;2022-08-05T06:22:01;36.67;;;24.83;;
8219;SDS011;4151;51.110;7.020;2022-08-05T06:24:27;40.40;;;25.90;;
8219;SDS011;4151;51.110;7.020;2022-08-05T06:26:53;40.10;;;25.57;;
8219;SDS011;4151;51.110;7.020;2022-08-05T06:29:19;38.77;;;25.53;;
8219;SDS011;4151;51.110;7.020;2022-08-05T06:31:45;38.97;;;25.80;;
8219;SDS011;4151;51.110;7.020;2022-08-05T06:34:10;41.53;;;25.63;;
8219;SDS011;4151;51.110;7.020;2022-08-05T06:36:36;38.20;;;24.43;;
8219;SDS011;4151;51.110;7.020;2022-08-05T06:39:02;40.93;;;25.37;;
8219;SDS011;4151;51.110;7.020;2022-08-05T06:41:27;46.07;;;27.27;;
8219;SDS011;4151;51.110;7.020;2022-08-05T06:43:53;42.60;;;26.80;;
8219;SDS011;4151;51.110;7.020;2022-08-05T06:46:19;41.10;;;27.77;;
8219;SDS011;4151;51.110;7.020;2022-08-05T06:48:44;43.10;;;28.37;;
8219;SDS011;4151;51.110;7.020;2022-08-05T06:51:10;44.60;;;29.03;;
8219;SDS011;4151;51.110;7.020;2022-08-05T06:53:36;37.97;;;25.80;;
8219;SDS011;4151;51.110;7.020;2022-08-05T06:56:02;49.93;;;30.10;;
8219;SDS011;4151;51.110;7.020;2022-08-05T06:58:28;47.93;;;28.17;;
8219;SDS011;4151;51.110;7.020;2022-08-05T07:00:54;44.80;;;30.00;;
8219;SDS011;4151;51.110;7.020;2022-08-05T07:03:21;47.10;;;29.80;;
8219;SDS011;4151;51.110;7.020;2022-08-05T07:05:47;45.57;;;29.03;;
8219;SDS011;4151;51.110;7.020;2022-08-05T07:08:12;45.80;;;30.93;;
8219;SDS011;4151;51.110;7.020;2022-08-05T07:10:38;54.03;;;33.43;;
8219;SDS011;4151;51.110;7.020;2022-08-05T07:13:04;50.67;;;32.80;;
8219;SDS011;4151;51.110;7.020;2022-08-05T07:15:48;54.00;;;34.53;;
8219;SDS011;4151;51.110;7.020;2022-08-05T07:18:32;50.53;;;32.77;;
8219;SDS011;4151;51.110;7.020;2022-08-05T07:20:58;60.80;;;35.10;;
8219;SDS011;4151;51.110;7.020;2022-08-05T07:23:24;54.43;;;34.47;;
8219;SDS011;4151;51.110;7.020;2022-08-05T07:25:49;60.75;;;38.97;;
8219;SDS011;4151;51.110;7.020;2022-08-05T07:28:15;52.83;;;32.10;;
8219;SDS011;4151;51.110;7.020;2022-08-05T07:30:40;66.60;;;38.70;;
8219;SDS011;4151;51.110;7.020;2022-08-05T07:33:07;51.50;;;34.50;;
8219;SDS011;4151;51.110;7.020;2022-08-05T07:35:34;53.03;;;32.73;;
8219;SDS011;4151;51.110;7.020;2022-08-05T07:38:00;45.03;;;30.53;;
8219;SDS011;4151;51.110;7.020;2022-08-05T07:40:26;48.80;;;31.90;;
8219;SDS011;4151;51.110;7.020;2022-08-05T07:42:51;48.57;;;31.47;;
8219;SDS011;4151;51.110;7.020;2022-08-05T07:45:17;51.63;;;31.10;;
8219;SDS011;4151;51.110;7.020;2022-08-05T07:47:43;56.80;;;34.53;;
8219;SDS011;4151;51.110;7.020;2022-08-05T07:50:08;53.60;;;31.43;;
8219;SDS011;4151;51.110;7.020;2022-08-05T07:52:38;61.33;;;35.70;;
8219;SDS011;4151;51.110;7.020;2022-08-05T07:55:05;63.63;;;35.07;;
8219;SDS011;4151;51.110;7.020;2022-08-05T07:57:31;65.10;;;36.67;;
8219;SDS011;4151;51.110;7.020;2022-08-05T07:59:56;71.50;;;39.07;;
8219;SDS011;4151;51.110;7.020;2022-08-05T08:02:25;81.73;;;39.43;;
8219;SDS011;4151;51.110;7.020;2022-08-05T08:04:52;78.80;;;41.53;;
8219;SDS011;4151;51.110;7.020;2022-08-05T08:07:19;78.13;;;43.30;;
8219;SDS011;4151;51.110;7.020;2022-08-05T08:09:45;99.13;;;46.07;;
8219;SDS011;4151;51.110;7.020;2022-08-05T08:12:12;92.00;;;43.77;;
8219;SDS011;4151;51.110;7.020;2022-08-05T08:14:38;86.73;;;39.97;;
8219;SDS011;4151;51.110;7.020;2022-08-05T08:17:05;66.87;;;37.13;;
8219;SDS011;4151;51.110;7.020;2022-08-05T08:19:38;73.33;;;39.23;;
8219;SDS011;4151;51.110;7.020;2022-08-05T08:22:05;71.60;;;39.50;;
8219;SDS011;4151;51.110;7.020;2022-08-05T08:24:32;79.20;;;36.20;;
8219;SDS011;4151;51.110;7.020;2022-08-05T08:26:58;59.33;;;32.23;;
8219;SDS011;4151;51.110;7.020;2022-08-05T08:29:24;49.80;;;29.87;;
8219;SDS011;4151;51.110;7.020;2022-08-05T08:31:50;49.77;;;30.47;;
8219;SDS011;4151;51.110;7.020;2022-08-05T08:34:20;54.47;;;29.70;;
8219;SDS011;4151;51.110;7.020;2022-08-05T08:36:47;49.30;;;29.23;;
8219;SDS011;4151;51.110;7.020;2022-08-05T08:39:13;51.43;;;28.67;;
8219;SDS011;4151;51.110;7.020;2022-08-05T08:41:42;50.80;;;29.33;;
8219;SDS011;4151;51.110;7.020;2022-08-05T08:44:10;63.60;;;30.77;;
8219;SDS011;4151;51.110;7.020;2022-08-05T08:46:37;58.00;;;32.47;;
8219;SDS011;4151;51.110;7.020;2022-08-05T08:49:03;59.03;;;31.93;;
8219;SDS011;4151;51.110;7.020;2022-08-05T08:51:30;52.73;;;30.53;;
8219;SDS011;4151;51.110;7.020;2022-08-05T08:53:57;56.23;;;32.20;;
8219;SDS011;4151;51.110;7.020;2022-08-05T08:56:23;65.93;;;33.40;;
8219;SDS011;4151;51.110;7.020;2022-08-05T08:58:49;63.00;;;34.83;;
8219;SDS011;4151;51.110;7.020;2022-08-05T09:01:16;61.17;;;35.27;;
8219;SDS011;4151;51.110;7.020;2022-08-05T09:03:43;59.07;;;33.10;;
8219;SDS011;4151;51.110;7.020;2022-08-05T09:06:11;48.43;;;29.93;;
8219;SDS011;4151;51.110;7.020;2022-08-05T09:08:36;50.43;;;29.13;;
8219;SDS011;4151;51.110;7.020;2022-08-05T09:11:02;42.33;;;24.50;;
8219;SDS011;4151;51.110;7.020;2022-08-05T09:13:28;35.83;;;23.53;;
8219;SDS011;4151;51.110;7.020;2022-08-05T09:15:54;34.07;;;22.97;;
8219;SDS011;4151;51.110;7.020;2022-08-05T09:18:19;31.97;;;20.40;;
8219;SDS011;4151;51.110;7.020;2022-08-05T09:20:45;28.80;;;20.93;;
8219;SDS011;4151;51.110;7.020;2022-08-05T09:25:42;28.87;;;19.30;;
8219;SDS011;4151;51.110;7.020;2022-08-05T09:31:00;31.73;;;18.70;;
8219;SDS011;4151;51.110;7.020;2022-08-05T09:33:29;35.53;;;19.63;;
8219;SDS011;4151;51.110;7.020;2022-08-05T09:35:59;26.90;;;17.50;;
8219;SDS011;4151;51.110;7.020;2022-08-05T09:38:26;27.60;;;18.97;;
8219;SDS011;4151;51.110;7.020;2022-08-05T09:40:52;25.70;;;17.67;;
8219;SDS011;4151;51.110;7.020;2022-08-05T09:43:27;28.13;;;18.00;;
8219;SDS011;4151;51.110;7.020;2022-08-05T09:45:58;29.77;;;17.93;;
8219;SDS011;4151;51.110;7.020;2022-08-05T09:48:30;22.67;;;15.20;;
8219;SDS011;4151;51.110;7.020;2022-08-05T09:51:00;24.40;;;14.80;;
8219;SDS011;4151;51.110;7.020;2022-08-05T09:53:26;18.10;;;14.33;;
8219;SDS011;4151;51.110;7.020;2022-08-05T09:55:59;17.70;;;13.23;;
8219;SDS011;4151;51.110;7.020;2022-08-05T09:58:25;21.10;;;11.93;;
8219;SDS011;4151;51.110;7.020;2022-08-05T10:00:58;24.80;;;16.10;;
8219;SDS011;4151;51.110;7.020;2022-08-05T10:03:26;19.70;;;11.10;;
8219;SDS011;4151;51.110;7.020;2022-08-05T10:06:03;18.27;;;11.60;;
8219;SDS011;4151;51.110;7.020;2022-08-05T10:08:30;23.07;;;11.27;;
8219;SDS011;4151;51.110;7.020;2022-08-05T10:10:56;16.13;;;8.00;;
8219;SDS011;4151;51.110;7.020;2022-08-05T10:13:27;17.50;;;9.90;;
8219;SDS011;4151;51.110;7.020;2022-08-05T10:16:00;14.00;;;8.20;;
8219;SDS011;4151;51.110;7.020;2022-08-05T10:18:27;12.33;;;8.07;;
8219;SDS011;4151;51.110;7.020;2022-08-05T10:20:57;10.10;;;7.30;;
8219;SDS011;4151;51.110;7.020;2022-08-05T10:23:30;11.90;;;8.40;;
8219;SDS011;4151;51.110;7.020;2022-08-05T10:25:58;11.77;;;8.33;;
8219;SDS011;4151;51.110;7.020;2022-08-05T10:28:26;11.90;;;6.47;;
8219;SDS011;4151;51.110;7.020;2022-08-05T10:30:52;14.43;;;7.70;;
8219;SDS011;4151;51.110;7.020;2022-08-05T10:33:18;13.00;;;7.27;;
8219;SDS011;4151;51.110;7.020;2022-08-05T10:35:47;15.47;;;7.47;;
8219;SDS011;4151;51.110;7.020;2022-08-05T10:38:14;16.43;;;7.00;;
8219;SDS011;4151;51.110;7.020;2022-08-05T10:46:09;13.47;;;6.57;;
8219;SDS011;4151;51.110;7.020;2022-08-05T10:51:13;8.43;;;4.37;;
8219;SDS011;4151;51.110;7.020;2022-08-05T10:54:01;5.40;;;4.30;;
8219;SDS011;4151;51.110;7.020;2022-08-05T10:56:27;8.03;;;3.90;;
8219;SDS011;4151;51.110;7.020;2022-08-05T10:59:05;9.37;;;5.37;;
8219;SDS011;4151;51.110;7.020;2022-08-05T11:12:02;8.43;;;5.23;;
8219;SDS011;4151;51.110;7.020;2022-08-05T11:14:29;10.43;;;5.50;;
8219;SDS011;4151;51.110;7.020;2022-08-05T11:19:48;10.40;;;5.80;;
8219;SDS011;4151;51.110;7.020;2022-08-05T11:22:59;11.17;;;5.20;;
8219;SDS011;4151;51.110;7.020;2022-08-05T11:25:32;10.60;;;4.33;;
8219;SDS011;4151;51.110;7.020;2022-08-05T11:35:52;17.57;;;5.43;;
8219;SDS011;4151;51.110;7.020;2022-08-05T11:38:49;22.20;;;5.00;;
8219;SDS011;4151;51.110;7.020;2022-08-05T11:41:05;8.80;;;3.97;;
8219;SDS011;4151;51.110;7.020;2022-08-05T11:43:32;6.30;;;3.73;;
8219;SDS011;4151;51.110;7.020;2022-08-05T11:45:59;10.20;;;4.07;;
8219;SDS011;4151;51.110;7.020;2022-08-05T11:48:26;7.93;;;4.30;;
8219;SDS011;4151;51.110;7.020;2022-08-05T11:50:52;7.57;;;3.90;;
8219;SDS011;4151;51.110;7.020;2022-08-05T11:53:19;5.33;;;4.23;;
8219;SDS011;4151;51.110;7.020;2022-08-05T11:55:58;7.23;;;3.80;;
8219;SDS011;4151;51.110;7.020;2022-08-05T11:58:37;4.73;;;3.87;;
8219;SDS011;4151;51.110;7.020;2022-08-05T12:01:10;5.30;;;3.40;;
8219;SDS011;4151;51.110;7.020;2022-08-05T12:03:53;4.20;;;3.20;;
8219;SDS011;4151;51.110;7.020;2022-08-05T12:06:23;5.67;;;3.13;;
8219;SDS011;4151;51.110;7.020;2022-08-05T12:08:57;8.37;;;4.33;;
8219;SDS011;4151;51.110;7.020;2022-08-05T12:11:27;6.40;;;3.40;;
8219;SDS011;4151;51.110;7.020;2022-08-05T12:16:31;4.47;;;3.40;;
8219;SDS011;4151;51.110;7.020;2022-08-05T12:18:58;5.33;;;3.00;;
8219;SDS011;4151;51.110;7.020;2022-08-05T12:21:27;5.07;;;3.10;;
8219;SDS011;4151;51.110;7.020;2022-08-05T12:23:58;4.87;;;3.30;;
8219;SDS011;4151;51.110;7.020;2022-08-05T12:26:33;4.00;;;3.00;;
8219;SDS011;4151;51.110;7.020;2022-08-05T12:29:02;8.43;;;3.17;;
8219;SDS011;4151;51.110;7.020;2022-08-05T12:31:39;9.27;;;3.50;;
8219;SDS011;4151;51.110;7.020;2022-08-05T12:34:08;6.07;;;3.40;;
8219;SDS011;4151;51.110;7.020;2022-08-05T12:36:34;7.33;;;3.90;;
8219;SDS011;4151;51.110;7.020;2022-08-05T12:39:01;6.07;;;3.23;;
8219;SDS011;4151;51.110;7.020;2022-08-05T12:41:29;4.00;;;2.67;;
8219;SDS011;4151;51.110;7.020;2022-08-05T12:43:57;5.53;;;3.30;;
8219;SDS011;4151;51.110;7.020;2022-08-05T12:46:31;3.57;;;2.83;;
8219;SDS011;4151;51.110;7.020;2022-08-05T12:51:30;4.70;;;2.90;;
8219;SDS011;4151;51.110;7.020;2022-08-05T12:54:02;6.57;;;3.20;;
8219;SDS011;4151;51.110;7.020;2022-08-05T12:56:28;8.97;;;3.00;;
8219;SDS011;4151;51.110;7.020;2022-08-05T13:01:43;11.20;;;2.60;;
8219;SDS011;4151;51.110;7.020;2022-08-05T13:04:17;4.60;;;2.40;;
8219;SDS011;4151;51.110;7.020;2022-08-05T13:06:43;12.80;;;2.97;;
8219;SDS011;4151;51.110;7.020;2022-08-05T13:09:09;3.37;;;2.73;;
8219;SDS011;4151;51.110;7.020;2022-08-05T13:11:37;3.50;;;2.60;;
8219;SDS011;4151;51.110;7.020;2022-08-05T13:14:23;4.70;;;2.67;;
8219;SDS011;4151;51.110;7.020;2022-08-05T13:16:50;5.23;;;2.67;;
8219;SDS011;4151;51.110;7.020;2022-08-05T13:19:19;4.37;;;2.43;;
8219;SDS011;4151;51.110;7.020;2022-08-05T13:21:46;4.27;;;2.60;;
8219;SDS011;4151;51.110;7.020;2022-08-05T13:24:12;5.90;;;1.90;;
8219;SDS011;4151;51.110;7.020;2022-08-05T13:26:38;6.33;;;3.33;;
8219;SDS011;4151;51.110;7.020;2022-08-05T13:29:04;3.87;;;2.70;;
8219;SDS011;4151;51.110;7.020;2022-08-05T13:31:29;4.00;;;2.80;;
8219;SDS011;4151;51.110;7.020;2022-08-05T13:33:55;5.03;;;2.60;;
8219;SDS011;4151;51.110;7.020;2022-08-05T13:36:21;7.20;;;2.90;;
8219;SDS011;4151;51.110;7.020;2022-08-05T13:38:46;3.83;;;2.60;;
8219;SDS011;4151;51.110;7.020;2022-08-05T13:41:12;4.53;;;2.67;;
8219;SDS011;4151;51.110;7.020;2022-08-05T13:43:39;4.30;;;2.80;;
8219;SDS011;4151;51.110;7.020;2022-08-05T13:46:05;6.30;;;3.47;;
8219;SDS011;4151;51.110;7.020;2022-08-05T13:48:32;6.07;;;3.30;;
8219;SDS011;4151;51.110;7.020;2022-08-05T13:51:06;4.50;;;3.40;;
8219;SDS011;4151;51.110;7.020;2022-08-05T13:53:32;6.50;;;3.20;;
8219;SDS011;4151;51.110;7.020;2022-08-05T13:55:59;6.40;;;3.00;;
8219;SDS011;4151;51.110;7.020;2022-08-05T13:58:28;7.97;;;3.27;;
8219;SDS011;4151;51.110;7.020;2022-08-05T14:00:53;5.23;;;3.50;;
8219;SDS011;4151;51.110;7.020;2022-08-05T14:03:19;6.30;;;3.63;;
8219;SDS011;4151;51.110;7.020;2022-08-05T14:05:45;5.97;;;3.60;;
8219;SDS011;4151;51.110;7.020;2022-08-05T14:08:11;7.90;;;3.23;;
8219;SDS011;4151;51.110;7.020;2022-08-05T14:10:37;6.27;;;3.20;;
8219;SDS011;4151;51.110;7.020;2022-08-05T14:13:03;7.03;;;3.40;;
8219;SDS011;4151;51.110;7.020;2022-08-05T14:15:31;3.80;;;3.00;;
8219;SDS011;4151;51.110;7.020;2022-08-05T14:17:57;7.40;;;3.83;;
8219;SDS011;4151;51.110;7.020;2022-08-05T14:20:22;6.03;;;3.30;;
8219;SDS011;4151;51.110;7.020;2022-08-05T14:22:48;4.70;;;2.87;;
8219;SDS011;4151;51.110;7.020;2022-08-05T14:25:14;4.93;;;3.17;;
8219;SDS011;4151;51.110;7.020;2022-08-05T14:27:41;7.87;;;3.23;;
8219;SDS011;4151;51.110;7.020;2022-08-05T14:30:07;4.50;;;3.23;;
8219;SDS011;4151;51.110;7.020;2022-08-05T14:32:32;4.03;;;3.23;;
8219;SDS011;4151;51.110;7.020;2022-08-05T14:34:58;6.80;;;3.37;;
8219;SDS011;4151;51.110;7.020;2022-08-05T14:37:24;14.07;;;3.50;;
8219;SDS011;4151;51.110;7.020;2022-08-05T14:39:49;7.17;;;3.40;;
8219;SDS011;4151;51.110;7.020;2022-08-05T14:42:15;5.90;;;3.53;;
8219;SDS011;4151;51.110;7.020;2022-08-05T14:44:40;7.80;;;3.70;;
8219;SDS011;4151;51.110;7.020;2022-08-05T14:47:06;7.63;;;3.67;;
8219;SDS011;4151;51.110;7.020;2022-08-05T14:49:31;7.60;;;3.53;;
8219;SDS011;4151;51.110;7.020;2022-08-05T14:51:57;3.40;;;2.90;;
8219;SDS011;4151;51.110;7.020;2022-08-05T15:00:54;3.87;;;2.50;;
8219;SDS011;4151;51.110;7.020;2022-08-05T15:03:20;3.30;;;2.10;;
8219;SDS011;4151;51.110;7.020;2022-08-05T15:05:45;4.07;;;2.30;;
8219;SDS011;4151;51.110;7.020;2022-08-05T15:08:11;3.10;;;2.10;;
8219;SDS011;4151;51.110;7.020;2022-08-05T15:10:36;4.17;;;2.67;;
8219;SDS011;4151;51.110;7.020;2022-08-05T15:13:02;4.63;;;2.20;;
8219;SDS011;4151;51.110;7.020;2022-08-05T15:15:29;5.30;;;2.20;;
8219;SDS011;4151;51.110;7.020;2022-08-05T15:17:54;3.73;;;1.80;;
8219;SDS011;4151;51.110;7.020;2022-08-05T15:20:20;3.83;;;2.50;;
8219;SDS011;4151;51.110;7.020;2022-08-05T15:22:47;6.47;;;3.10;;
8219;SDS011;4151;51.110;7.020;2022-08-05T15:25:12;3.73;;;1.73;;
8219;SDS011;4151;51.110;7.020;2022-08-05T15:27:38;4.00;;;2.00;;
8219;SDS011;4151;51.110;7.020;2022-08-05T15:30:04;3.70;;;2.10;;
8219;SDS011;4151;51.110;7.020;2022-08-05T15:32:31;3.93;;;2.10;;
8219;SDS011;4151;51.110;7.020;2022-08-05T15:34:57;4.67;;;2.10;;
8219;SDS011;4151;51.110;7.020;2022-08-05T15:37:23;3.40;;;2.07;;
8219;SDS011;4151;51.110;7.020;2022-08-05T15:39:49;6.40;;;2.03;;
8219;SDS011;4151;51.110;7.020;2022-08-05T15:42:15;3.60;;;2.20;;
8219;SDS011;4151;51.110;7.020;2022-08-05T15:44:41;5.50;;;2.17;;
8219;SDS011;4151;51.110;7.020;2022-08-05T15:47:06;5.83;;;1.90;;
8219;SDS011;4151;51.110;7.020;2022-08-05T15:49:33;4.87;;;2.17;;
8219;SDS011;4151;51.110;7.020;2022-08-05T15:52:00;4.80;;;2.30;;
8219;SDS011;4151;51.110;7.020;2022-08-05T15:54:26;6.00;;;2.20;;
8219;SDS011;4151;51.110;7.020;2022-08-05T15:56:51;6.90;;;2.07;;
8219;SDS011;4151;51.110;7.020;2022-08-05T15:59:17;2.70;;;1.40;;
8219;SDS011;4151;51.110;7.020;2022-08-05T16:01:43;2.90;;;1.90;;
8219;SDS011;4151;51.110;7.020;2022-08-05T16:04:08;3.93;;;1.57;;